createdAt,value
2022-09-07T00:03:56.900Z,19.58
2022-09-07T00:08:56.760Z,19.36
2022-09-07T00:13:56.722Z,19.41
2022-09-07T00:18:56.772Z,19.26
2022-09-07T00:23:56.595Z,19.11
2022-09-07T00:28:57.683Z,19.07
2022-09-07T00:33:56.573Z,18.85
2022-09-07T00:38:57.539Z,18.98
2022-09-07T00:43:56.359Z,18.78
2022-09-07T00:48:56.333Z,18.69
2022-09-07T00:53:56.289Z,18.51
2022-09-07T00:58:56.229Z,18.48
2022-09-07T01:03:56.261Z,18.52
2022-09-07T01:08:56.262Z,18.47
2022-09-07T01:13:56.215Z,18.47
2022-09-07T01:18:56.172Z,18.44
2022-09-07T01:23:55.930Z,18.39
2022-09-07T01:28:55.881Z,18.36
2022-09-07T01:33:55.845Z,18.29
2022-09-07T01:38:55.787Z,18.17
2022-09-07T01:43:55.864Z,18.29
2022-09-07T01:48:55.674Z,18.30
2022-09-07T01:53:55.713Z,18.23
2022-09-07T01:58:55.815Z,18.35
2022-09-07T02:03:55.583Z,18.41
2022-09-07T02:08:55.645Z,18.42
2022-09-07T02:13:55.488Z,18.48
2022-09-07T02:18:55.333Z,18.37
2022-09-07T02:23:55.372Z,18.21
2022-09-07T02:28:55.223Z,18.17
2022-09-07T02:33:55.355Z,18.20
2022-09-07T02:38:56.208Z,18.23
2022-09-07T02:44:04.026Z,18.25
2022-09-07T02:48:54.981Z,17.99
2022-09-07T02:53:54.949Z,17.92
2022-09-07T02:58:54.985Z,17.90
2022-09-07T03:03:54.883Z,17.90
2022-09-07T03:08:54.844Z,17.99
2022-09-07T03:13:54.841Z,17.89
2022-09-07T03:18:55.716Z,17.79
2022-09-07T03:23:54.628Z,17.71
2022-09-07T03:28:54.551Z,17.59
2022-09-07T03:33:54.575Z,17.52
2022-09-07T03:38:54.531Z,17.51
2022-09-07T03:43:54.531Z,17.40
2022-09-07T03:48:55.556Z,17.36
2022-09-07T03:53:54.503Z,17.25
2022-09-07T03:58:54.485Z,17.21
2022-09-07T04:03:55.439Z,17.18
2022-09-07T04:08:54.278Z,17.11
2022-09-07T04:13:54.228Z,17.06
2022-09-07T04:18:54.146Z,16.97
2022-09-07T04:23:54.106Z,16.94
2022-09-07T04:28:54.186Z,16.86
2022-09-07T04:33:55.170Z,16.82
2022-09-07T04:38:53.910Z,16.83
2022-09-07T04:43:53.862Z,16.79
2022-09-07T04:48:53.706Z,16.75
2022-09-07T04:53:53.619Z,16.75
2022-09-07T04:58:53.663Z,16.75
2022-09-07T05:03:55.783Z,16.75
2022-09-07T05:08:53.671Z,16.75
2022-09-07T05:13:53.483Z,16.70
2022-09-07T05:18:54.637Z,16.73
2022-09-07T05:23:54.474Z,16.73
2022-09-07T05:38:54.250Z,16.85
2022-09-07T05:48:54.112Z,16.97
2022-09-07T05:53:53.066Z,17.08
2022-09-07T05:58:52.945Z,17.23
2022-09-07T06:03:53.036Z,17.33
2022-09-07T06:08:52.927Z,17.38
2022-09-07T06:13:57.689Z,17.36
2022-09-07T06:18:52.887Z,17.40
2022-09-07T06:23:52.675Z,17.38
2022-09-07T06:28:57.169Z,17.51
2022-09-07T06:33:53.625Z,17.62
2022-09-07T06:38:53.592Z,17.81
2022-09-07T06:43:52.503Z,18.25
2022-09-07T06:48:52.449Z,18.58
2022-09-07T06:53:52.739Z,18.92
2022-09-07T06:58:52.375Z,19.28
2022-09-07T07:03:52.200Z,19.71
2022-09-07T07:08:52.210Z,19.83
2022-09-07T07:13:52.069Z,20.10
2022-09-07T07:18:52.055Z,20.48
2022-09-07T07:23:52.121Z,20.69
2022-09-07T07:33:53.013Z,20.70
2022-09-07T07:38:59.244Z,20.59
2022-09-07T07:43:52.838Z,20.70
2022-09-07T07:48:51.712Z,20.92
2022-09-07T07:53:51.636Z,21.10
2022-09-07T07:58:52.080Z,21.37
2022-09-07T08:03:52.830Z,21.37
2022-09-07T08:08:51.524Z,21.64
2022-09-07T08:13:51.558Z,21.86
2022-09-07T08:18:51.667Z,22.17
2022-09-07T08:23:51.312Z,22.37
2022-09-07T08:28:51.322Z,22.47
2022-09-07T08:33:51.738Z,22.52
2022-09-07T08:38:51.229Z,22.17
2022-09-07T08:44:02.250Z,22.51
2022-09-07T08:48:51.283Z,22.70
2022-09-07T08:53:50.984Z,22.75
2022-09-07T08:58:58.766Z,23.01
2022-09-07T09:08:55.096Z,23.20
2022-09-07T09:13:50.747Z,23.27
2022-09-07T09:18:51.717Z,23.48
2022-09-07T09:23:50.651Z,24.08
2022-09-07T09:28:50.594Z,24.16
2022-09-07T09:33:50.548Z,24.21
2022-09-07T09:38:50.489Z,24.34
2022-09-07T09:43:50.439Z,24.52
2022-09-07T09:48:50.394Z,24.88
2022-09-07T09:53:51.322Z,24.98
2022-09-07T09:59:56.131Z,25.24
2022-09-07T10:08:50.168Z,25.17
2022-09-07T10:13:50.140Z,25.06
2022-09-07T10:18:50.090Z,25.15
2022-09-07T10:23:50.039Z,25.51
2022-09-07T10:38:50.866Z,25.94
2022-09-07T10:43:49.827Z,26.18
2022-09-07T10:48:49.762Z,25.72
2022-09-07T10:54:29.944Z,26.58
2022-09-07T10:59:06.092Z,26.47
2022-09-07T11:03:50.658Z,26.47
2022-09-07T11:14:11.910Z,26.80
2022-09-07T11:18:50.654Z,25.82
2022-09-07T11:23:49.425Z,25.32
2022-09-07T11:29:29.116Z,24.93
2022-09-07T11:38:50.267Z,25.60
2022-09-07T11:43:49.221Z,26.32
2022-09-07T11:48:49.156Z,26.47
2022-09-07T11:53:49.116Z,26.17
2022-09-07T11:58:49.039Z,26.44
2022-09-07T12:03:49.106Z,27.17
2022-09-07T12:08:50.951Z,27.22
2022-09-07T12:13:48.948Z,27.25
2022-09-07T12:18:48.844Z,27.65
2022-09-07T12:23:49.828Z,27.24
2022-09-07T12:28:48.770Z,27.34
2022-09-07T12:33:48.712Z,27.49
2022-09-07T12:38:48.658Z,27.29
2022-09-07T12:43:48.622Z,26.69
2022-09-07T12:48:48.574Z,26.21
2022-09-07T12:53:48.525Z,26.06
2022-09-07T12:58:49.466Z,25.94
2022-09-07T13:03:52.707Z,26.09
2022-09-07T13:08:48.378Z,26.12
2022-09-07T13:14:05.183Z,26.20
2022-09-07T13:18:49.250Z,25.92
2022-09-07T13:23:48.201Z,26.87
2022-09-07T13:28:48.163Z,27.27
2022-09-07T13:33:48.106Z,26.80
2022-09-07T13:38:48.052Z,26.43
2022-09-07T13:43:47.992Z,26.70
2022-09-07T13:48:47.933Z,26.89
2022-09-07T13:53:47.898Z,27.07
2022-09-07T13:58:47.822Z,26.84
2022-09-07T14:03:47.768Z,26.52
2022-09-07T14:08:47.723Z,26.44
2022-09-07T14:13:47.668Z,26.36
2022-09-07T14:18:47.635Z,26.45
2022-09-07T14:23:47.578Z,26.36
2022-09-07T14:28:47.522Z,26.29
2022-09-07T14:33:47.452Z,26.25
2022-09-07T14:44:58.772Z,25.98
2022-09-07T14:49:58.705Z,26.29
2022-09-07T14:54:58.716Z,26.57
2022-09-07T14:59:58.586Z,26.63
2022-09-07T15:04:58.536Z,26.67
2022-09-07T15:09:58.491Z,26.43
2022-09-07T15:14:58.457Z,26.33
2022-09-07T15:19:58.384Z,26.28
2022-09-07T15:24:58.337Z,26.26
2022-09-07T15:29:58.280Z,26.26
2022-09-07T15:34:58.248Z,26.12
2022-09-07T15:39:58.218Z,26.09
2022-09-07T15:44:58.118Z,26.02
2022-09-07T15:49:58.072Z,26.10
2022-09-07T15:54:58.000Z,26.26
2022-09-07T15:59:57.960Z,26.25
2022-09-07T16:04:57.955Z,26.26
2022-09-07T16:10:02.156Z,26.10
2022-09-07T16:14:57.792Z,25.99
2022-09-07T16:20:01.873Z,25.69
2022-09-07T16:24:57.693Z,25.55
2022-09-07T16:29:57.641Z,25.50
2022-09-07T16:34:57.577Z,25.50
2022-09-07T16:39:57.559Z,25.27
2022-09-07T16:46:02.612Z,25.23
2022-09-07T16:49:58.993Z,25.03
2022-09-07T16:54:57.353Z,24.95
2022-09-07T16:59:57.323Z,24.95
2022-09-07T17:04:57.260Z,24.84
2022-09-07T17:09:57.199Z,24.76
2022-09-07T17:14:57.142Z,24.77
2022-09-07T17:19:57.116Z,24.73
2022-09-07T17:24:57.034Z,24.64
2022-09-07T17:29:57.014Z,24.50
2022-09-07T17:34:56.965Z,24.37
2022-09-07T17:39:57.128Z,24.21
2022-09-07T17:44:56.829Z,24.00
2022-09-07T17:49:56.838Z,23.84
2022-09-07T17:54:56.739Z,23.58
2022-09-07T18:00:12.469Z,23.32
2022-09-07T18:04:57.633Z,23.02
2022-09-07T18:09:56.541Z,22.75
2022-09-07T18:14:56.503Z,22.52
2022-09-07T18:19:56.444Z,22.28
2022-09-07T18:24:56.380Z,22.06
2022-09-07T18:29:56.349Z,21.82
2022-09-07T18:34:56.366Z,21.62
2022-09-07T18:39:56.413Z,21.44
2022-09-07T18:49:57.203Z,21.09
2022-09-07T18:54:56.263Z,20.94
2022-09-07T18:59:56.111Z,20.77
2022-09-07T19:09:56.960Z,20.43
2022-09-07T19:14:55.863Z,20.31
2022-09-07T19:19:55.906Z,20.20
2022-09-07T19:24:55.735Z,20.03
2022-09-07T19:29:55.718Z,19.91
2022-09-07T19:34:55.693Z,19.76
2022-09-07T19:39:55.682Z,19.61
2022-09-07T19:44:55.589Z,19.55
2022-09-07T19:49:55.529Z,19.41
2022-09-07T19:54:55.446Z,19.32
2022-09-07T19:59:55.352Z,19.21
2022-09-07T20:04:55.302Z,19.07
2022-09-07T20:09:55.226Z,18.92
2022-09-07T20:14:55.169Z,18.88
2022-09-07T20:19:55.220Z,18.80
2022-09-07T20:24:55.145Z,18.66
2022-09-07T20:29:55.093Z,18.57
2022-09-07T20:34:54.961Z,18.52
2022-09-07T20:39:54.935Z,18.45
2022-09-07T20:44:54.891Z,18.37
2022-09-07T20:49:54.802Z,18.27
2022-09-07T21:22:31.444Z,17.75
2022-09-07T21:27:33.187Z,17.58
2022-09-07T21:32:31.694Z,17.51
2022-09-07T21:37:30.728Z,17.44
2022-09-07T21:42:34.111Z,17.37
2022-09-07T21:47:30.583Z,17.28
2022-09-07T21:52:30.521Z,17.21
2022-09-07T21:57:30.629Z,17.14
2022-09-07T22:02:30.510Z,17.07
2022-09-07T22:07:30.314Z,16.98
2022-09-07T22:12:30.306Z,16.89
2022-09-07T22:17:30.233Z,16.89
2022-09-07T22:22:30.187Z,16.89
2022-09-07T22:27:30.123Z,16.85
2022-09-07T22:32:30.060Z,16.82
2022-09-07T22:37:29.970Z,16.73
2022-09-07T22:42:29.989Z,16.68
2022-09-07T22:47:29.970Z,16.71
2022-09-07T22:52:29.946Z,16.75
2022-09-07T22:57:29.772Z,16.76
2022-09-07T23:02:29.704Z,16.67
2022-09-07T23:07:29.641Z,16.70
2022-09-07T23:12:29.761Z,16.67
2022-09-07T23:17:29.629Z,16.61
2022-09-07T23:22:29.573Z,16.58
2022-09-07T23:27:29.418Z,16.60
2022-09-07T23:32:29.466Z,16.64
2022-09-07T23:37:29.362Z,16.67
2022-09-07T23:42:29.244Z,16.67
2022-09-07T23:47:29.221Z,16.58
2022-09-07T23:52:29.141Z,16.57
2022-09-07T23:57:29.153Z,16.58
